createdAt,value
2023-03-15T00:02:02.630Z,5.95
2023-03-15T00:04:33.567Z,5.96
2023-03-15T00:07:19.911Z,5.92
2023-03-15T00:09:52.542Z,5.86
2023-03-15T00:12:41.256Z,5.87
2023-03-15T00:15:41.875Z,5.79
2023-03-15T00:21:25.060Z,5.77
2023-03-15T00:27:23.998Z,5.83
2023-03-15T00:29:59.878Z,5.86
2023-03-15T00:36:38.025Z,5.75
2023-03-15T00:39:17.055Z,5.50
2023-03-15T00:41:49.170Z,5.61
2023-03-15T00:44:21.901Z,5.65
2023-03-15T00:46:54.491Z,5.63
2023-03-15T00:49:24.734Z,5.65
2023-03-15T00:52:04.621Z,5.64
2023-03-15T00:54:47.476Z,5.61
2023-03-15T00:57:40.098Z,5.53
2023-03-15T01:00:25.238Z,5.42
2023-03-15T01:03:12.290Z,5.39
2023-03-15T01:05:48.708Z,5.32
2023-03-15T01:08:47.980Z,5.33
2023-03-15T01:12:06.865Z,5.31
2023-03-15T01:14:51.052Z,5.35
2023-03-15T01:27:11.142Z,5.12
2023-03-15T01:34:07.469Z,5.06
2023-03-15T01:37:42.088Z,5.05
2023-03-15T01:43:35.413Z,4.97
2023-03-15T01:46:10.897Z,5.02
2023-03-15T01:48:44.936Z,5.09
2023-03-15T01:51:22.798Z,5.14
2023-03-15T01:53:59.300Z,5.13
2023-03-15T01:56:31.149Z,5.18
2023-03-15T01:59:04.295Z,5.26
2023-03-15T02:01:35.920Z,5.21
2023-03-15T02:04:10.868Z,5.27
2023-03-15T02:06:46.960Z,5.28
2023-03-15T02:12:03.634Z,5.28
2023-03-15T02:14:36.803Z,5.30
2023-03-15T02:22:49.710Z,5.26
2023-03-15T02:28:33.174Z,5.16
2023-03-15T02:31:11.140Z,5.11
2023-03-15T02:33:49.185Z,5.15
2023-03-15T02:40:08.489Z,5.23
2023-03-15T02:42:38.645Z,5.17
2023-03-15T02:45:25.355Z,5.21
2023-03-15T02:48:00.273Z,5.28
2023-03-15T02:50:31.560Z,5.23
2023-03-15T02:59:33.810Z,5.05
2023-03-15T03:02:07.150Z,4.90
2023-03-15T03:04:38.047Z,4.92
2023-03-15T03:07:12.262Z,4.85
2023-03-15T03:09:49.445Z,4.87
2023-03-15T03:12:33.902Z,4.88
2023-03-15T03:15:50.165Z,4.83
2023-03-15T03:18:25.393Z,4.79
2023-03-15T03:21:21.622Z,4.78
2023-03-15T03:24:27.658Z,4.73
2023-03-15T03:27:10.619Z,4.76
2023-03-15T03:29:42.268Z,4.77
2023-03-15T03:35:16.322Z,4.80
2023-03-15T03:37:47.345Z,4.82
2023-03-15T03:40:24.829Z,4.85
2023-03-15T03:46:53.673Z,4.87
2023-03-15T03:49:46.568Z,4.97
2023-03-15T03:55:46.720Z,5.14
2023-03-15T03:58:16.745Z,5.14
2023-03-15T04:00:46.661Z,5.18
2023-03-15T04:03:16.741Z,5.19
2023-03-15T04:05:47.805Z,5.15
2023-03-15T04:08:17.716Z,5.14
2023-03-15T04:10:53.421Z,5.18
2023-03-15T04:13:27.514Z,5.22
2023-03-15T04:16:01.600Z,5.24
2023-03-15T04:18:31.778Z,5.28
2023-03-15T04:21:01.855Z,5.35
2023-03-15T04:23:32.233Z,5.32
2023-03-15T04:26:05.823Z,5.31
2023-03-15T04:28:38.155Z,5.24
2023-03-15T04:31:10.796Z,5.16
2023-03-15T04:33:40.812Z,5.12
2023-03-15T04:36:19.132Z,5.08
2023-03-15T04:38:49.552Z,5.04
2023-03-15T04:41:21.962Z,5.05
2023-03-15T04:43:51.987Z,5.03
2023-03-15T04:46:23.945Z,5.02
2023-03-15T04:48:54.920Z,5.08
2023-03-15T04:51:24.881Z,5.17
2023-03-15T04:53:55.085Z,5.18
2023-03-15T04:56:27.765Z,5.21
2023-03-15T04:58:58.127Z,5.20
2023-03-15T05:01:32.408Z,5.18
2023-03-15T05:04:02.966Z,5.15
2023-03-15T05:06:34.022Z,5.16
2023-03-15T05:09:04.176Z,5.14
2023-03-15T05:11:36.838Z,5.11
2023-03-15T05:14:06.761Z,5.08
2023-03-15T05:16:36.692Z,5.04
2023-03-15T05:19:06.704Z,5.04
2023-03-15T05:21:36.673Z,5.02
2023-03-15T05:24:08.314Z,5.01
2023-03-15T05:26:40.962Z,4.99
2023-03-15T05:29:13.712Z,4.90
2023-03-15T05:31:44.395Z,4.84
2023-03-15T05:34:14.340Z,4.83
2023-03-15T05:36:44.833Z,4.84
2023-03-15T05:39:16.934Z,4.85
2023-03-15T05:41:49.600Z,4.87
2023-03-15T05:44:19.566Z,4.85
2023-03-15T05:46:49.618Z,4.84
2023-03-15T05:49:19.612Z,4.88
2023-03-15T05:51:49.537Z,4.86
2023-03-15T05:54:19.440Z,4.82
2023-03-15T05:56:52.090Z,4.88
2023-03-15T05:59:21.972Z,4.91
2023-03-15T06:01:52.047Z,4.91
2023-03-15T06:04:22.056Z,4.88
2023-03-15T06:06:52.177Z,4.93
2023-03-15T06:09:23.462Z,4.84
2023-03-15T06:11:56.161Z,4.89
2023-03-15T06:14:26.238Z,4.93
2023-03-15T06:16:56.724Z,4.90
2023-03-15T06:19:27.930Z,4.89
2023-03-15T06:21:58.071Z,4.95
2023-03-15T06:24:28.387Z,4.90
2023-03-15T06:27:01.711Z,4.82
2023-03-15T06:29:31.846Z,4.90
2023-03-15T06:32:01.776Z,4.91
2023-03-15T06:34:31.823Z,4.90
2023-03-15T06:37:03.521Z,4.87
2023-03-15T06:39:34.572Z,4.90
2023-03-15T06:42:09.633Z,4.95
2023-03-15T06:44:40.063Z,4.99
2023-03-15T06:47:11.386Z,5.08
2023-03-15T06:49:42.167Z,5.05
2023-03-15T06:52:15.256Z,5.12
2023-03-15T06:54:45.438Z,5.18
2023-03-15T06:57:18.558Z,5.15
2023-03-15T06:59:48.563Z,5.13
2023-03-15T07:02:22.233Z,5.01
2023-03-15T07:04:52.683Z,5.01
2023-03-15T07:07:25.534Z,5.03
2023-03-15T07:09:55.647Z,5.05
2023-03-15T07:12:28.635Z,5.07
2023-03-15T07:15:10.412Z,5.11
2023-03-15T07:17:46.723Z,5.12
2023-03-15T07:20:16.892Z,5.18
2023-03-15T07:22:47.913Z,5.27
2023-03-15T07:25:23.986Z,5.31
2023-03-15T07:27:57.105Z,5.33
2023-03-15T07:30:28.196Z,5.38
2023-03-15T07:32:58.362Z,5.38
2023-03-15T07:35:28.851Z,5.41
2023-03-15T07:38:00.390Z,5.41
2023-03-15T07:40:31.226Z,5.46
2023-03-15T07:43:03.925Z,5.46
2023-03-15T07:45:34.248Z,5.47
2023-03-15T07:48:04.197Z,5.53
2023-03-15T07:50:34.162Z,5.63
2023-03-15T07:53:04.032Z,5.67
2023-03-15T07:55:34.842Z,5.79
2023-03-15T07:58:07.426Z,5.83
2023-03-15T08:00:37.421Z,5.86
2023-03-15T08:03:07.691Z,5.90
2023-03-15T08:05:38.466Z,5.93
2023-03-15T08:08:11.049Z,5.99
2023-03-15T08:10:40.934Z,6.01
2023-03-15T08:13:13.817Z,6.04
2023-03-15T08:15:44.031Z,6.04
2023-03-15T08:18:14.146Z,6.05
2023-03-15T08:20:43.987Z,6.05
2023-03-15T08:23:16.787Z,6.06
2023-03-15T08:25:47.429Z,6.24
2023-03-15T08:28:20.781Z,6.48
2023-03-15T08:30:50.650Z,6.64
2023-03-15T08:33:22.401Z,6.75
2023-03-15T08:35:58.550Z,6.84
2023-03-15T08:38:29.118Z,7.05
2023-03-15T08:41:00.133Z,7.23
2023-03-15T08:43:32.740Z,7.28
2023-03-15T08:46:02.956Z,7.47
2023-03-15T08:48:38.162Z,7.67
2023-03-15T08:51:09.821Z,7.80
2023-03-15T08:53:42.399Z,7.93
2023-03-15T08:56:12.374Z,8.04
2023-03-15T08:58:45.546Z,8.14
2023-03-15T09:01:16.537Z,8.18
2023-03-15T09:03:46.701Z,8.27
2023-03-15T09:06:21.395Z,8.34
2023-03-15T09:08:54.255Z,8.40
2023-03-15T09:11:26.096Z,8.52
2023-03-15T09:13:58.713Z,8.67
2023-03-15T09:16:31.175Z,8.84
2023-03-15T09:19:05.853Z,8.90
2023-03-15T09:21:35.825Z,8.75
2023-03-15T09:24:05.961Z,8.60
2023-03-15T09:26:38.210Z,8.54
2023-03-15T09:29:11.568Z,8.40
2023-03-15T09:31:41.446Z,8.24
2023-03-15T09:34:21.885Z,8.15
2023-03-15T09:36:56.807Z,8.08
2023-03-15T09:39:28.109Z,7.99
2023-03-15T09:42:01.886Z,8.06
2023-03-15T09:44:49.229Z,8.04
2023-03-15T09:47:38.364Z,8.23
2023-03-15T09:50:18.340Z,8.43
2023-03-15T09:52:51.823Z,8.40
2023-03-15T09:55:25.440Z,8.32
2023-03-15T09:57:59.103Z,8.35
2023-03-15T10:00:40.157Z,8.36
2023-03-15T10:03:19.621Z,8.34
2023-03-15T10:05:54.086Z,8.40
2023-03-15T10:08:24.603Z,8.63
2023-03-15T10:10:57.377Z,8.91
2023-03-15T10:13:48.644Z,9.13
2023-03-15T10:16:34.346Z,9.35
2023-03-15T10:19:15.218Z,9.48
2023-03-15T10:22:18.062Z,9.41
2023-03-15T10:24:53.142Z,9.41
2023-03-15T10:27:26.089Z,9.42
2023-03-15T10:29:59.221Z,9.37
2023-03-15T10:32:34.133Z,9.32
2023-03-15T10:35:05.263Z,9.43
2023-03-15T10:37:35.767Z,9.71
2023-03-15T10:40:08.088Z,9.95
2023-03-15T10:42:40.167Z,10.03
2023-03-15T10:45:23.953Z,9.92
2023-03-15T10:48:00.742Z,10.14
2023-03-15T10:50:34.003Z,10.35
2023-03-15T10:53:11.701Z,10.40
2023-03-15T10:55:47.072Z,10.48
2023-03-15T10:58:25.879Z,10.64
2023-03-15T11:00:57.452Z,10.87
2023-03-15T11:03:31.649Z,11.02
2023-03-15T11:06:02.715Z,11.20
2023-03-15T11:08:41.138Z,11.29
2023-03-15T11:11:11.843Z,11.30
2023-03-15T11:13:43.116Z,11.35
2023-03-15T11:16:26.192Z,11.17
2023-03-15T11:19:02.473Z,11.10
2023-03-15T11:21:35.809Z,11.05
2023-03-15T11:24:08.755Z,10.94
2023-03-15T11:26:41.091Z,10.79
2023-03-15T11:29:18.109Z,10.62
2023-03-15T11:31:48.514Z,10.57
2023-03-15T11:34:30.179Z,10.50
2023-03-15T11:37:08.844Z,10.52
2023-03-15T11:39:45.405Z,10.59
2023-03-15T11:42:21.915Z,10.78
2023-03-15T11:44:56.075Z,10.90
2023-03-15T11:47:40.251Z,10.97
2023-03-15T11:50:18.894Z,11.11
2023-03-15T11:52:52.464Z,11.17
2023-03-15T11:55:27.193Z,11.23
2023-03-15T11:57:58.140Z,11.34
2023-03-15T12:00:52.712Z,11.30
2023-03-15T12:03:44.743Z,11.34
2023-03-15T12:06:41.652Z,11.39
2023-03-15T12:10:01.145Z,11.22
2023-03-15T12:12:49.102Z,11.23
2023-03-15T12:15:50.049Z,11.36
2023-03-15T12:18:24.133Z,11.44
2023-03-15T12:21:00.855Z,11.54
2023-03-15T12:23:42.812Z,11.56
2023-03-15T12:26:25.146Z,11.66
2023-03-15T12:29:06.740Z,11.70
2023-03-15T12:32:10.404Z,11.61
2023-03-15T12:34:49.333Z,11.68
2023-03-15T12:37:23.286Z,11.64
2023-03-15T12:40:05.108Z,11.64
2023-03-15T12:43:06.018Z,11.71
2023-03-15T12:45:45.550Z,11.83
2023-03-15T12:48:29.627Z,11.83
2023-03-15T12:51:16.476Z,11.91
2023-03-15T12:53:56.470Z,11.87
2023-03-15T12:56:50.684Z,11.87
2023-03-15T12:59:30.235Z,11.99
2023-03-15T13:02:02.003Z,12.03
2023-03-15T13:04:34.315Z,12.10
2023-03-15T13:07:26.768Z,11.84
2023-03-15T13:10:15.532Z,11.96
2023-03-15T13:12:58.035Z,11.96
2023-03-15T13:15:33.565Z,11.99
2023-03-15T13:18:18.347Z,12.08
2023-03-15T13:21:00.807Z,12.06
2023-03-15T13:23:32.706Z,12.20
2023-03-15T13:26:16.923Z,12.20
2023-03-15T13:28:57.621Z,12.19
2023-03-15T13:31:31.287Z,12.24
2023-03-15T13:34:14.144Z,12.22
2023-03-15T13:36:46.736Z,12.30
2023-03-15T13:39:26.077Z,12.28
2023-03-15T13:42:01.421Z,12.27
2023-03-15T13:44:35.040Z,12.17
2023-03-15T13:47:04.926Z,12.20
2023-03-15T13:49:36.492Z,12.34
2023-03-15T13:52:14.300Z,12.46
2023-03-15T13:54:45.804Z,12.48
2023-03-15T13:57:18.414Z,12.38
2023-03-15T13:59:55.506Z,12.29
2023-03-15T14:02:28.108Z,12.42
2023-03-15T14:05:01.701Z,12.47
2023-03-15T14:07:36.995Z,12.52
2023-03-15T14:10:12.037Z,12.56
2023-03-15T14:12:41.779Z,12.66
2023-03-15T14:15:22.217Z,12.60
2023-03-15T14:18:00.868Z,12.63
2023-03-15T14:20:34.057Z,12.66
2023-03-15T14:23:06.610Z,12.72
2023-03-15T14:25:38.482Z,12.67
2023-03-15T14:28:09.356Z,12.75
2023-03-15T14:30:41.931Z,12.78
2023-03-15T14:33:28.117Z,12.82
2023-03-15T14:36:01.936Z,12.90
2023-03-15T14:38:36.813Z,12.88
2023-03-15T14:41:27.928Z,12.81
2023-03-15T14:43:57.770Z,12.85
2023-03-15T14:46:30.529Z,12.89
2023-03-15T14:49:00.350Z,12.88
2023-03-15T14:51:32.785Z,12.93
2023-03-15T14:54:04.233Z,12.98
2023-03-15T14:56:36.991Z,12.98
2023-03-15T14:59:15.056Z,12.92
2023-03-15T15:01:52.024Z,12.88
2023-03-15T15:04:22.676Z,12.86
2023-03-15T15:06:54.203Z,12.83
2023-03-15T15:09:28.745Z,12.83
2023-03-15T15:11:58.746Z,12.80
2023-03-15T15:14:28.613Z,12.80
2023-03-15T15:17:01.047Z,12.80
2023-03-15T15:19:30.896Z,12.74
2023-03-15T15:22:01.161Z,12.69
2023-03-15T15:24:31.003Z,12.55
2023-03-15T15:27:00.817Z,12.50
2023-03-15T15:29:30.733Z,12.49
2023-03-15T15:32:03.233Z,12.46
2023-03-15T15:34:34.144Z,12.38
2023-03-15T15:37:04.755Z,12.30
2023-03-15T15:39:34.800Z,12.24
2023-03-15T15:42:04.643Z,12.25
2023-03-15T15:44:34.396Z,12.24
2023-03-15T15:47:06.972Z,12.24
2023-03-15T15:57:54.217Z,12.06
2023-03-15T16:00:27.239Z,12.02
2023-03-15T16:03:01.154Z,12.00
2023-03-15T16:05:34.260Z,11.99
2023-03-15T16:08:06.677Z,11.97
2023-03-15T16:10:37.537Z,11.98
2023-03-15T16:13:07.911Z,11.99
2023-03-15T16:15:38.000Z,11.98
2023-03-15T16:18:12.866Z,11.93
2023-03-15T16:20:44.294Z,11.96
2023-03-15T16:23:22.194Z,11.88
2023-03-15T16:25:54.259Z,11.87
2023-03-15T16:28:24.775Z,11.83
2023-03-15T16:30:55.140Z,11.79
2023-03-15T16:33:28.040Z,11.73
2023-03-15T16:35:58.168Z,11.65
2023-03-15T16:38:34.957Z,11.62
2023-03-15T16:41:05.166Z,11.55
2023-03-15T16:43:35.284Z,11.49
2023-03-15T16:46:07.236Z,11.47
2023-03-15T16:48:40.231Z,11.39
2023-03-15T16:51:10.486Z,11.35
2023-03-15T16:53:45.666Z,11.27
2023-03-15T16:56:19.214Z,11.17
2023-03-15T16:58:56.726Z,11.02
2023-03-15T17:01:27.938Z,10.88
2023-03-15T17:04:01.528Z,10.80
2023-03-15T17:06:32.985Z,10.78
2023-03-15T17:09:09.434Z,10.77
2023-03-15T17:11:43.266Z,10.67
2023-03-15T17:14:18.607Z,10.62
2023-03-15T17:17:01.074Z,10.57
2023-03-15T17:19:36.149Z,10.44
2023-03-15T17:22:08.299Z,10.37
2023-03-15T17:24:42.349Z,10.29
2023-03-15T17:27:32.920Z,10.19
2023-03-15T17:30:04.427Z,10.16
2023-03-15T17:32:51.690Z,10.12
2023-03-15T17:38:51.537Z,9.99
2023-03-15T18:37:43.204Z,8.64
2023-03-15T18:40:15.787Z,8.60
2023-03-15T18:42:48.008Z,8.54
2023-03-15T18:45:21.828Z,8.49
2023-03-15T18:47:52.141Z,8.43
2023-03-15T18:50:22.875Z,8.38
2023-03-15T18:52:55.368Z,8.36
2023-03-15T18:55:25.220Z,8.32
2023-03-15T18:57:56.965Z,8.28
2023-03-15T19:00:29.692Z,8.25
2023-03-15T19:03:01.654Z,8.21
2023-03-15T19:05:33.255Z,8.16
2023-03-15T19:08:06.259Z,8.08
2023-03-15T19:10:36.185Z,8.05
2023-03-15T19:13:06.109Z,7.98
2023-03-15T19:15:36.055Z,7.92
2023-03-15T19:18:06.067Z,7.87
2023-03-15T19:20:38.133Z,7.82
2023-03-15T19:23:10.713Z,7.78
2023-03-15T19:25:40.667Z,7.69
2023-03-15T19:28:10.452Z,7.64
2023-03-15T19:30:42.477Z,7.60
2023-03-15T19:33:12.577Z,7.56
2023-03-15T19:35:42.527Z,7.52
2023-03-15T19:38:15.140Z,7.47
2023-03-15T19:40:45.041Z,7.41
2023-03-15T19:43:18.622Z,7.37
2023-03-15T19:45:48.426Z,7.37
2023-03-15T19:48:18.391Z,7.37
2023-03-15T19:50:50.534Z,7.37
2023-03-15T19:53:23.083Z,7.38
2023-03-15T19:55:53.007Z,7.35
2023-03-15T19:58:23.215Z,7.31
2023-03-15T20:00:56.117Z,7.28
2023-03-15T20:03:27.101Z,7.25
2023-03-15T20:05:57.061Z,7.21
2023-03-15T20:08:32.408Z,7.17
2023-03-15T20:11:04.110Z,7.12
2023-03-15T20:13:35.423Z,7.06
2023-03-15T20:16:06.085Z,6.99
2023-03-15T20:18:36.522Z,6.95
2023-03-15T20:21:07.253Z,6.92
2023-03-15T20:23:39.770Z,6.84
2023-03-15T20:26:12.506Z,6.79
2023-03-15T20:28:44.576Z,6.74
2023-03-15T20:31:17.157Z,6.70
2023-03-15T20:33:48.026Z,6.66
2023-03-15T20:36:18.000Z,6.60
2023-03-15T20:38:50.734Z,6.56
2023-03-15T20:41:21.246Z,6.55
2023-03-15T20:43:51.173Z,6.52
2023-03-15T20:46:22.877Z,6.52
2023-03-15T20:48:52.941Z,6.46
2023-03-15T20:51:23.125Z,6.48
2023-03-15T20:53:55.658Z,6.47
2023-03-15T20:56:25.630Z,6.45
2023-03-15T20:58:55.589Z,6.44
2023-03-15T21:01:25.640Z,6.42
2023-03-15T21:03:56.448Z,6.39
2023-03-15T21:06:26.578Z,6.33
2023-03-15T21:08:59.031Z,6.30
2023-03-15T21:11:29.190Z,6.28
2023-03-15T21:13:59.004Z,6.26
2023-03-15T21:16:29.049Z,6.22
2023-03-15T21:18:59.170Z,6.21
2023-03-15T21:21:29.163Z,6.21
2023-03-15T21:24:02.275Z,6.19
2023-03-15T21:26:32.191Z,6.19
2023-03-15T21:29:02.073Z,6.17
2023-03-15T21:31:32.180Z,6.14
2023-03-15T21:34:05.245Z,6.12
2023-03-15T21:36:35.233Z,6.09
2023-03-15T21:39:08.328Z,6.06
2023-03-15T21:41:38.312Z,6.03
2023-03-15T21:44:08.781Z,6.00
2023-03-15T21:46:39.121Z,5.97
2023-03-15T21:49:10.643Z,5.95
2023-03-15T21:51:46.014Z,5.95
2023-03-15T21:54:18.559Z,5.95
2023-03-15T21:56:48.501Z,5.96
2023-03-15T21:59:18.632Z,5.94
2023-03-15T22:01:49.690Z,5.90
2023-03-15T22:04:19.709Z,5.87
2023-03-15T22:06:49.695Z,5.80
2023-03-15T22:09:23.385Z,5.77
2023-03-15T22:11:53.449Z,5.73
2023-03-15T22:14:23.415Z,5.68
2023-03-15T22:16:53.630Z,5.64
2023-03-15T22:19:23.598Z,5.62
2023-03-15T22:21:53.512Z,5.57
2023-03-15T22:24:26.330Z,5.53
2023-03-15T22:26:56.775Z,5.47
2023-03-15T22:29:26.614Z,5.43
2023-03-15T22:31:56.476Z,5.40
2023-03-15T22:34:27.571Z,5.39
2023-03-15T22:36:57.607Z,5.39
2023-03-15T22:39:30.048Z,5.36
2023-03-15T22:41:59.937Z,5.34
2023-03-15T22:44:30.605Z,5.32
2023-03-15T22:47:01.445Z,5.22
2023-03-15T22:49:31.362Z,5.19
2023-03-15T22:52:01.222Z,5.18
2023-03-15T22:54:34.041Z,5.19
2023-03-15T22:57:05.873Z,5.21
2023-03-15T22:59:36.117Z,5.24
2023-03-15T23:02:07.273Z,5.24
2023-03-15T23:04:37.120Z,5.25
2023-03-15T23:07:07.220Z,5.27
2023-03-15T23:09:39.743Z,5.25
2023-03-15T23:12:10.325Z,5.24
2023-03-15T23:14:41.130Z,5.24
2023-03-15T23:17:11.604Z,5.24
2023-03-15T23:19:41.629Z,5.20
2023-03-15T23:22:11.659Z,5.16
2023-03-15T23:24:46.187Z,5.13
2023-03-15T23:27:16.486Z,5.11
2023-03-15T23:29:54.624Z,5.08
2023-03-15T23:32:25.771Z,5.04
2023-03-15T23:34:56.003Z,5.03
2023-03-15T23:37:26.230Z,4.97
2023-03-15T23:39:58.788Z,4.91
2023-03-15T23:42:29.508Z,4.81
2023-03-15T23:44:59.813Z,4.80
2023-03-15T23:47:29.661Z,4.77
2023-03-15T23:49:59.433Z,4.77
2023-03-15T23:52:29.261Z,4.77
2023-03-15T23:55:01.734Z,4.76
2023-03-15T23:57:31.651Z,4.75
